createdAt,value
2018-11-22T00:00:16.503Z,3.12
2018-11-22T00:01:16.535Z,3.04
2018-11-22T00:02:16.481Z,3.08
2018-11-22T00:03:16.471Z,3.07
2018-11-22T00:04:16.456Z,3.05
2018-11-22T00:05:16.454Z,3.04
2018-11-22T00:06:16.463Z,3.02
2018-11-22T00:07:16.447Z,3.05
2018-11-22T00:08:16.416Z,3.01
2018-11-22T00:09:16.408Z,3.08
2018-11-22T00:10:16.449Z,3.04
2018-11-22T00:11:16.386Z,3.05
2018-11-22T00:12:16.382Z,3.01
2018-11-22T00:13:16.395Z,3.08
2018-11-22T00:14:16.350Z,3.02
2018-11-22T00:15:16.342Z,3.04
2018-11-22T00:16:16.348Z,3.12
2018-11-22T00:17:16.317Z,3.05
2018-11-22T00:18:16.327Z,3.10
2018-11-22T00:19:16.348Z,3.02
2018-11-22T00:20:16.285Z,3.02
2018-11-22T00:21:16.298Z,3.07
2018-11-22T00:22:16.267Z,3.05
2018-11-22T00:23:16.272Z,3.08
2018-11-22T00:24:16.253Z,3.01
2018-11-22T00:25:16.257Z,3.02
2018-11-22T00:26:16.221Z,3.02
2018-11-22T00:27:16.234Z,3.04
2018-11-22T00:28:16.210Z,2.99
2018-11-22T00:29:16.217Z,3.04
2018-11-22T00:30:16.193Z,3.01
2018-11-22T00:31:16.168Z,3.07
2018-11-22T00:32:16.163Z,2.99
2018-11-22T00:33:16.184Z,3.04
2018-11-22T00:34:16.141Z,2.99
2018-11-22T00:35:16.128Z,3.02
2018-11-22T00:36:16.123Z,3.08
2018-11-22T00:37:16.111Z,3.04
2018-11-22T00:38:16.101Z,3.04
2018-11-22T00:39:16.105Z,3.08
2018-11-22T00:40:16.076Z,3.04
2018-11-22T00:41:16.101Z,3.07
2018-11-22T00:42:16.104Z,3.04
2018-11-22T00:43:16.045Z,3.04
2018-11-22T00:44:16.031Z,3.08
2018-11-22T00:45:16.027Z,3.05
2018-11-22T00:46:16.011Z,3.05
2018-11-22T00:47:16.018Z,3.07
2018-11-22T00:48:16.024Z,2.98
2018-11-22T00:49:15.975Z,2.98
2018-11-22T00:50:16.019Z,2.98
2018-11-22T00:51:15.957Z,3.01
2018-11-22T00:52:15.956Z,2.98
2018-11-22T00:53:15.941Z,3.02
2018-11-22T00:54:15.949Z,2.95
2018-11-22T00:55:15.916Z,2.97
2018-11-22T00:56:15.915Z,3.01
2018-11-22T00:57:15.886Z,2.98
2018-11-22T00:58:15.885Z,2.97
2018-11-22T00:59:15.866Z,3.10
2018-11-22T01:00:15.874Z,2.99
2018-11-22T01:01:15.861Z,3.01
2018-11-22T01:02:15.854Z,3.07
2018-11-22T01:03:15.828Z,2.99
2018-11-22T01:04:15.820Z,2.99
2018-11-22T01:05:15.801Z,2.98
2018-11-22T01:06:15.804Z,2.97
2018-11-22T01:07:15.791Z,3.08
2018-11-22T01:08:15.793Z,3.04
2018-11-22T01:09:15.767Z,2.99
2018-11-22T01:10:15.751Z,3.01
2018-11-22T01:11:15.763Z,3.01
2018-11-22T01:12:15.727Z,3.02
2018-11-22T01:13:15.725Z,2.98
2018-11-22T01:14:15.797Z,2.98
2018-11-22T01:15:15.705Z,2.97
2018-11-22T01:16:15.690Z,2.95
2018-11-22T01:17:15.698Z,3.07
2018-11-22T01:18:15.665Z,3.02
2018-11-22T01:19:15.658Z,2.95
2018-11-22T01:20:15.676Z,2.98
2018-11-22T01:21:15.629Z,2.99
2018-11-22T01:22:16.281Z,2.99
2018-11-22T01:23:15.628Z,3.01
2018-11-22T01:24:16.282Z,2.99
2018-11-22T01:25:15.584Z,2.99
2018-11-22T01:26:15.632Z,2.98
2018-11-22T01:27:15.606Z,2.98
2018-11-22T01:28:15.551Z,3.01
2018-11-22T01:29:15.547Z,2.89
2018-11-22T01:30:15.530Z,3.01
2018-11-22T01:31:15.519Z,2.97
2018-11-22T01:32:15.551Z,2.95
2018-11-22T01:33:15.527Z,2.94
2018-11-22T01:34:15.488Z,2.98
2018-11-22T01:35:15.485Z,2.95
2018-11-22T01:36:15.474Z,2.94
2018-11-22T01:37:15.453Z,3.02
2018-11-22T01:38:15.487Z,2.92
2018-11-22T01:39:15.459Z,3.01
2018-11-22T01:40:15.428Z,2.95
2018-11-22T01:41:15.417Z,2.95
2018-11-22T01:42:15.407Z,2.90
2018-11-22T01:43:15.415Z,2.94
2018-11-22T01:44:15.408Z,3.01
2018-11-22T01:45:15.368Z,2.87
2018-11-22T01:46:15.358Z,2.95
2018-11-22T01:47:15.351Z,2.92
2018-11-22T01:48:15.381Z,2.89
2018-11-22T01:49:15.335Z,2.95
2018-11-22T01:50:15.337Z,2.87
2018-11-22T01:51:15.319Z,2.89
2018-11-22T01:52:15.296Z,2.90
2018-11-22T01:53:15.288Z,2.90
2018-11-22T01:54:15.305Z,2.90
2018-11-22T01:55:15.269Z,2.92
2018-11-22T01:56:15.283Z,2.86
2018-11-22T01:57:15.243Z,2.92
2018-11-22T01:58:15.245Z,2.92
2018-11-22T01:59:15.284Z,2.89
2018-11-22T02:00:15.207Z,2.89
2018-11-22T02:01:15.204Z,2.90
2018-11-22T02:02:15.223Z,2.87
2018-11-22T02:03:15.177Z,2.86
2018-11-22T02:04:15.176Z,2.92
2018-11-22T02:05:15.209Z,2.92
2018-11-22T02:06:15.141Z,2.92
2018-11-22T02:07:15.139Z,2.84
2018-11-22T02:08:15.147Z,2.90
2018-11-22T02:09:15.146Z,2.90
2018-11-22T02:10:15.122Z,2.87
2018-11-22T02:11:15.094Z,2.84
2018-11-22T02:12:15.082Z,2.83
2018-11-22T02:13:15.088Z,2.80
2018-11-22T02:14:15.060Z,2.87
2018-11-22T02:15:15.089Z,2.87
2018-11-22T02:16:15.045Z,2.79
2018-11-22T02:17:15.070Z,2.84
2018-11-22T02:18:15.023Z,2.77
2018-11-22T02:19:15.029Z,2.86
2018-11-22T02:20:15.030Z,2.84
2018-11-22T02:21:14.983Z,2.80
2018-11-22T02:22:14.978Z,2.86
2018-11-22T02:23:14.962Z,2.90
2018-11-22T02:24:14.960Z,2.86
2018-11-22T02:25:14.951Z,2.74
2018-11-22T02:26:15.025Z,2.87
2018-11-22T02:27:14.923Z,2.76
2018-11-22T02:28:14.906Z,2.84
2018-11-22T02:29:14.903Z,2.86
2018-11-22T02:30:14.904Z,2.83
2018-11-22T02:31:14.879Z,2.84
2018-11-22T02:32:14.908Z,2.84
2018-11-22T02:33:14.855Z,2.79
2018-11-22T02:34:14.849Z,2.83
2018-11-22T02:35:14.875Z,2.81
2018-11-22T02:36:14.826Z,2.71
2018-11-22T02:37:14.827Z,2.80
2018-11-22T02:38:14.818Z,2.84
2018-11-22T02:39:14.822Z,2.74
2018-11-22T02:40:14.784Z,2.83
2018-11-22T02:41:14.824Z,2.79
2018-11-22T02:42:14.793Z,2.84
2018-11-22T02:43:14.747Z,2.80
2018-11-22T02:44:14.752Z,2.84
2018-11-22T02:45:14.733Z,2.76
2018-11-22T02:46:14.716Z,2.79
2018-11-22T02:47:14.713Z,2.83
2018-11-22T02:48:14.720Z,2.76
2018-11-22T02:49:14.685Z,2.86
2018-11-22T02:50:14.683Z,2.76
2018-11-22T02:51:14.675Z,2.81
2018-11-22T02:52:14.680Z,2.74
2018-11-22T02:53:14.662Z,2.81
2018-11-22T02:54:14.628Z,2.83
2018-11-22T02:55:14.665Z,2.87
2018-11-22T02:56:14.628Z,2.87
2018-11-22T02:57:14.647Z,2.87
2018-11-22T02:58:14.592Z,2.89
2018-11-22T02:59:14.611Z,2.77
2018-11-22T03:00:14.564Z,2.80
2018-11-22T03:01:14.555Z,2.87
2018-11-22T03:02:14.549Z,2.90
2018-11-22T03:03:14.572Z,2.80
2018-11-22T03:04:14.527Z,2.76
2018-11-22T03:05:14.549Z,2.87
2018-11-22T03:06:14.512Z,2.84
2018-11-22T03:07:14.516Z,2.76
2018-11-22T03:08:14.507Z,2.74
2018-11-22T03:09:14.508Z,2.80
2018-11-22T03:10:14.483Z,2.87
2018-11-22T03:11:14.443Z,2.76
2018-11-22T03:12:14.490Z,2.76
2018-11-22T03:13:14.427Z,2.74
2018-11-22T03:14:14.419Z,2.74
2018-11-22T03:15:14.429Z,2.79
2018-11-22T03:16:14.410Z,2.80
2018-11-22T03:17:14.392Z,2.76
2018-11-22T03:18:14.430Z,2.81
2018-11-22T03:19:14.365Z,2.84
2018-11-22T03:20:14.350Z,2.71
2018-11-22T03:21:14.339Z,2.74
2018-11-22T03:22:14.355Z,2.77
2018-11-22T03:23:14.349Z,2.79
2018-11-22T03:24:14.303Z,2.79
2018-11-22T03:25:14.308Z,2.77
2018-11-22T03:26:14.313Z,2.86
2018-11-22T03:27:14.292Z,2.73
2018-11-22T03:28:14.299Z,2.80
2018-11-22T03:29:14.303Z,2.84
2018-11-22T03:30:14.248Z,2.77
2018-11-22T03:31:14.268Z,2.74
2018-11-22T03:32:14.252Z,2.86
2018-11-22T03:33:14.225Z,2.80
2018-11-22T03:34:14.226Z,2.89
2018-11-22T03:35:14.198Z,2.76
2018-11-22T03:36:14.176Z,2.76
2018-11-22T03:37:14.223Z,2.74
2018-11-22T03:38:14.172Z,2.80
2018-11-22T03:39:14.141Z,2.74
2018-11-22T03:40:14.160Z,2.76
2018-11-22T03:41:14.129Z,2.81
2018-11-22T03:42:14.108Z,2.87
2018-11-22T03:43:14.179Z,2.74
2018-11-22T03:44:14.091Z,2.79
2018-11-22T03:45:14.076Z,2.76
2018-11-22T03:46:14.077Z,2.76
2018-11-22T03:47:14.061Z,2.74
2018-11-22T03:48:14.083Z,2.76
2018-11-22T03:49:14.075Z,2.84
2018-11-22T03:50:14.029Z,2.74
2018-11-22T03:51:14.010Z,2.76
2018-11-22T03:52:14.005Z,2.76
2018-11-22T03:53:13.995Z,2.71
2018-11-22T03:54:14.014Z,2.69
2018-11-22T03:55:13.969Z,2.74
2018-11-22T03:56:13.959Z,2.79
2018-11-22T03:57:13.954Z,2.77
2018-11-22T03:58:13.936Z,2.74
2018-11-22T03:59:13.956Z,2.83
2018-11-22T04:00:13.925Z,2.69
2018-11-22T04:01:13.908Z,2.90
2018-11-22T04:02:13.900Z,2.80
2018-11-22T04:03:13.881Z,2.69
2018-11-22T04:04:13.876Z,2.79
2018-11-22T04:05:13.897Z,2.81
2018-11-22T04:06:13.860Z,2.77
2018-11-22T04:07:13.872Z,2.77
2018-11-22T04:08:13.841Z,2.77
2018-11-22T04:09:13.821Z,2.81
2018-11-22T04:10:13.823Z,2.74
2018-11-22T04:11:13.799Z,2.76
2018-11-22T04:12:13.788Z,2.80
2018-11-22T04:13:13.828Z,2.81
2018-11-22T04:14:13.766Z,2.74
2018-11-22T04:15:13.793Z,2.81
2018-11-22T04:16:13.749Z,2.81
2018-11-22T04:17:13.733Z,2.74
2018-11-22T04:18:13.733Z,2.80
2018-11-22T04:19:13.758Z,2.80
2018-11-22T04:20:13.698Z,2.80
2018-11-22T04:21:13.734Z,2.81
2018-11-22T04:22:14.253Z,2.79
2018-11-22T04:23:13.668Z,2.71
2018-11-22T04:24:13.666Z,2.77
2018-11-22T04:25:13.664Z,2.81
2018-11-22T04:26:13.670Z,2.77
2018-11-22T04:27:13.646Z,2.76
2018-11-22T04:28:13.619Z,2.79
2018-11-22T04:29:13.600Z,2.80
2018-11-22T04:30:13.599Z,2.79
2018-11-22T04:31:13.588Z,2.77
2018-11-22T04:32:13.591Z,2.71
2018-11-22T04:33:13.558Z,2.79
2018-11-22T04:34:13.581Z,2.79
2018-11-22T04:35:13.547Z,2.74
2018-11-22T04:36:13.554Z,2.79
2018-11-22T04:37:13.519Z,2.79
2018-11-22T04:38:13.512Z,2.83
2018-11-22T04:39:13.492Z,2.80
2018-11-22T04:40:13.495Z,2.79
2018-11-22T04:41:13.476Z,2.80
2018-11-22T04:42:13.485Z,2.79
2018-11-22T04:43:13.453Z,2.86
2018-11-22T04:44:13.440Z,2.74
2018-11-22T04:45:13.429Z,2.77
2018-11-22T04:46:13.457Z,2.80
2018-11-22T04:47:13.421Z,2.77
2018-11-22T04:48:13.442Z,2.74
2018-11-22T04:49:13.393Z,2.81
2018-11-22T04:50:13.380Z,2.76
2018-11-22T04:51:13.364Z,2.79
2018-11-22T04:52:13.374Z,2.61
2018-11-22T04:53:13.344Z,2.76
2018-11-22T04:54:13.353Z,2.79
2018-11-22T04:55:13.320Z,2.74
2018-11-22T04:56:13.352Z,2.76
2018-11-22T04:57:13.303Z,2.77
2018-11-22T04:58:13.326Z,2.79
2018-11-22T04:59:13.285Z,2.71
2018-11-22T05:00:13.277Z,2.79
2018-11-22T05:01:13.253Z,2.74
2018-11-22T05:02:13.270Z,2.69
2018-11-22T05:03:13.242Z,2.80
2018-11-22T05:04:13.263Z,2.76
2018-11-22T05:05:13.213Z,2.80
2018-11-22T05:06:13.198Z,2.76
2018-11-22T05:07:13.195Z,2.73
2018-11-22T05:08:13.187Z,2.79
2018-11-22T05:09:13.172Z,2.76
2018-11-22T05:10:13.185Z,2.76
2018-11-22T05:11:13.179Z,2.74
2018-11-22T05:12:13.141Z,2.74
2018-11-22T05:13:13.134Z,2.65
2018-11-22T05:14:13.448Z,2.76
2018-11-22T05:15:13.122Z,2.79
2018-11-22T05:16:13.102Z,2.73
2018-11-22T05:17:13.130Z,2.65
2018-11-22T05:18:13.119Z,2.62
2018-11-22T05:19:13.060Z,2.73
2018-11-22T05:20:13.088Z,2.68
2018-11-22T05:21:13.040Z,2.63
2018-11-22T05:22:13.046Z,2.68
2018-11-22T05:23:13.032Z,2.65
2018-11-22T05:24:13.017Z,2.73
2018-11-22T05:25:13.005Z,2.76
2018-11-22T05:26:13.001Z,2.66
2018-11-22T05:27:12.975Z,2.68
2018-11-22T05:28:12.968Z,2.59
2018-11-22T05:29:12.958Z,2.68
2018-11-22T05:30:12.963Z,2.61
2018-11-22T05:31:12.957Z,2.65
2018-11-22T05:32:12.932Z,2.62
2018-11-22T05:33:12.915Z,2.62
2018-11-22T05:34:12.899Z,2.74
2018-11-22T05:35:12.894Z,2.69
2018-11-22T05:36:12.894Z,2.65
2018-11-22T05:37:12.887Z,2.68
2018-11-22T05:38:12.922Z,2.63
2018-11-22T05:39:12.846Z,2.65
2018-11-22T05:40:12.832Z,2.74
2018-11-22T05:41:12.866Z,2.63
2018-11-22T05:42:12.810Z,2.69
2018-11-22T05:43:12.798Z,2.66
2018-11-22T05:44:12.798Z,2.61
2018-11-22T05:45:12.779Z,2.71
2018-11-22T05:46:12.808Z,2.69
2018-11-22T05:47:12.760Z,2.68
2018-11-22T05:48:12.756Z,2.68
2018-11-22T05:49:12.762Z,2.71
2018-11-22T05:50:12.726Z,2.66
2018-11-22T05:51:12.721Z,2.66
2018-11-22T05:52:12.710Z,2.66
2018-11-22T05:53:12.685Z,2.65
2018-11-22T05:54:13.364Z,2.65
2018-11-22T05:55:12.687Z,2.63
2018-11-22T05:56:12.661Z,2.68
2018-11-22T05:57:12.655Z,2.71
2018-11-22T05:58:12.638Z,2.68
2018-11-22T05:59:12.623Z,2.66
2018-11-22T06:00:12.647Z,2.68
2018-11-22T06:01:16.362Z,2.63
2018-11-22T06:02:12.595Z,2.71
2018-11-22T06:03:12.589Z,2.62
2018-11-22T06:04:12.566Z,2.61
2018-11-22T06:05:12.602Z,2.68
2018-11-22T06:06:12.574Z,2.68
2018-11-22T06:07:12.535Z,2.63
2018-11-22T06:08:12.527Z,2.61
2018-11-22T06:09:12.530Z,2.65
2018-11-22T06:10:12.528Z,2.69
2018-11-22T06:11:12.814Z,2.66
2018-11-22T06:12:12.925Z,2.73
2018-11-22T06:13:12.475Z,2.63
2018-11-22T06:14:12.466Z,2.66
2018-11-22T06:15:12.512Z,2.68
2018-11-22T06:16:12.461Z,2.73
2018-11-22T06:17:12.458Z,2.73
2018-11-22T06:18:12.415Z,2.61
2018-11-22T06:19:12.420Z,2.71
2018-11-22T06:20:12.428Z,2.61
2018-11-22T06:21:12.429Z,2.65
2018-11-22T06:22:12.372Z,2.61
2018-11-22T06:23:12.360Z,2.61
2018-11-22T06:24:12.352Z,2.68
2018-11-22T06:25:12.358Z,2.65
2018-11-22T06:26:12.338Z,2.63
2018-11-22T06:27:12.333Z,2.69
2018-11-22T06:28:12.309Z,2.63
2018-11-22T06:29:13.346Z,2.66
2018-11-22T06:30:12.298Z,2.68
2018-11-22T06:31:12.276Z,2.69
2018-11-22T06:32:12.287Z,2.66
2018-11-22T06:33:12.259Z,2.61
2018-11-22T06:34:12.291Z,2.61
2018-11-22T06:35:12.230Z,2.63
2018-11-22T06:36:12.217Z,2.73
2018-11-22T06:37:12.301Z,2.76
2018-11-22T06:38:12.202Z,2.65
2018-11-22T06:39:12.208Z,2.73
2018-11-22T06:40:12.177Z,2.74
2018-11-22T06:41:12.903Z,2.76
2018-11-22T06:42:12.163Z,2.69
2018-11-22T06:43:12.156Z,2.76
2018-11-22T06:44:12.199Z,2.68
2018-11-22T06:45:12.121Z,2.79
2018-11-22T06:46:12.376Z,2.76
2018-11-22T06:47:12.839Z,2.65
2018-11-22T06:48:12.112Z,2.65
2018-11-22T06:49:12.092Z,2.79
2018-11-22T06:50:12.067Z,2.79
2018-11-22T06:51:12.197Z,2.73
2018-11-22T06:52:12.046Z,2.76
2018-11-22T06:53:12.072Z,2.66
2018-11-22T06:54:12.077Z,2.79
2018-11-22T06:55:12.030Z,2.66
2018-11-22T06:56:12.004Z,2.74
2018-11-22T06:57:11.992Z,2.65
2018-11-22T06:58:11.984Z,2.66
2018-11-22T06:59:11.991Z,2.69
2018-11-22T07:00:11.972Z,2.73
2018-11-22T07:01:11.946Z,2.66
2018-11-22T07:02:11.933Z,2.69
2018-11-22T07:03:11.926Z,2.68
2018-11-22T07:04:11.944Z,2.68
2018-11-22T07:05:11.902Z,2.65
2018-11-22T07:06:11.897Z,2.65
2018-11-22T07:07:11.882Z,2.63
2018-11-22T07:08:11.893Z,2.63
2018-11-22T07:09:11.862Z,2.68
2018-11-22T07:10:11.862Z,2.61
2018-11-22T07:11:11.841Z,2.68
2018-11-22T07:12:11.846Z,2.65
2018-11-22T07:13:11.816Z,2.66
2018-11-22T07:14:11.805Z,2.66
2018-11-22T07:15:11.807Z,2.66
2018-11-22T07:16:11.783Z,2.65
2018-11-22T07:17:11.772Z,2.65
2018-11-22T07:18:11.781Z,2.69
2018-11-22T07:19:11.762Z,2.62
2018-11-22T07:20:11.758Z,2.61
2018-11-22T07:21:11.732Z,2.63
2018-11-22T07:22:15.032Z,2.68
2018-11-22T07:23:11.712Z,2.63
2018-11-22T07:24:11.701Z,2.63
2018-11-22T07:25:11.728Z,2.61
2018-11-22T07:26:11.740Z,2.62
2018-11-22T07:27:11.691Z,2.63
2018-11-22T07:28:11.724Z,2.62
2018-11-22T07:29:11.652Z,2.62
2018-11-22T07:30:11.669Z,2.59
2018-11-22T07:31:11.625Z,2.61
2018-11-22T07:32:11.650Z,2.68
2018-11-22T07:33:11.601Z,2.65
2018-11-22T07:34:11.597Z,2.71
2018-11-22T07:35:11.710Z,2.65
2018-11-22T07:36:11.585Z,2.66
2018-11-22T07:37:11.565Z,2.62
2018-11-22T07:38:11.560Z,2.62
2018-11-22T07:39:11.534Z,2.66
2018-11-22T07:40:11.569Z,2.63
2018-11-22T07:41:11.574Z,2.65
2018-11-22T07:42:11.496Z,2.66
2018-11-22T07:43:11.562Z,2.65
2018-11-22T07:44:11.514Z,2.68
2018-11-22T07:45:11.492Z,2.69
2018-11-22T07:46:11.506Z,2.71
2018-11-22T07:47:11.453Z,2.62
2018-11-22T07:48:11.437Z,2.66
2018-11-22T07:49:11.483Z,2.65
2018-11-22T07:50:11.424Z,2.66
2018-11-22T07:51:11.400Z,2.65
2018-11-22T07:52:11.468Z,2.65
2018-11-22T07:53:11.415Z,2.62
2018-11-22T07:54:11.366Z,2.73
2018-11-22T07:55:11.357Z,2.74
2018-11-22T07:56:11.350Z,2.69
2018-11-22T07:57:11.384Z,2.71
2018-11-22T07:58:11.331Z,2.77
2018-11-22T07:59:11.399Z,2.79
2018-11-22T08:00:11.306Z,2.76
2018-11-22T08:01:11.298Z,2.79
2018-11-22T08:02:11.285Z,2.81
2018-11-22T08:03:11.384Z,2.79
2018-11-22T08:04:11.294Z,2.87
2018-11-22T08:05:11.245Z,2.80
2018-11-22T08:06:11.241Z,2.71
2018-11-22T08:07:11.260Z,2.80
2018-11-22T08:08:11.213Z,2.73
2018-11-22T08:09:11.223Z,2.81
2018-11-22T08:10:11.201Z,2.73
2018-11-22T08:11:11.187Z,2.76
2018-11-22T08:12:12.223Z,2.76
2018-11-22T08:13:11.167Z,2.74
2018-11-22T08:14:11.187Z,2.76
2018-11-22T08:15:11.138Z,2.69
2018-11-22T08:16:11.143Z,2.89
2018-11-22T08:17:11.116Z,2.81
2018-11-22T08:18:11.109Z,2.77
2018-11-22T08:19:11.096Z,2.71
2018-11-22T08:20:11.248Z,2.80
2018-11-22T08:21:11.075Z,2.76
2018-11-22T08:22:11.122Z,2.77
2018-11-22T08:23:11.055Z,2.80
2018-11-22T08:24:11.066Z,2.86
2018-11-22T08:25:11.074Z,2.84
2018-11-22T08:26:11.080Z,2.90
2018-11-22T08:27:11.021Z,2.80
2018-11-22T08:28:11.025Z,2.92
2018-11-22T08:29:11.043Z,2.86
2018-11-22T08:30:10.997Z,2.94
2018-11-22T08:31:10.976Z,2.87
2018-11-22T08:32:11.004Z,2.89
2018-11-22T08:33:10.957Z,3.01
2018-11-22T08:34:10.965Z,2.92
2018-11-22T08:35:10.936Z,2.99
2018-11-22T08:36:10.947Z,2.92
2018-11-22T08:37:10.914Z,2.94
2018-11-22T08:38:10.900Z,2.98
2018-11-22T08:39:10.881Z,2.95
2018-11-22T08:40:10.869Z,3.07
2018-11-22T08:41:10.863Z,2.99
2018-11-22T08:42:11.552Z,3.05
2018-11-22T08:43:10.846Z,3.04
2018-11-22T08:44:10.840Z,3.04
2018-11-22T08:45:10.818Z,2.99
2018-11-22T08:46:10.834Z,3.05
2018-11-22T08:47:12.237Z,3.04
2018-11-22T08:48:10.786Z,3.10
2018-11-22T08:49:10.773Z,3.07
2018-11-22T08:50:10.873Z,3.10
2018-11-22T08:51:11.344Z,3.05
2018-11-22T08:52:10.743Z,3.12
2018-11-22T08:53:10.726Z,3.10
2018-11-22T08:54:10.735Z,3.12
2018-11-22T08:55:10.709Z,3.12
2018-11-22T08:56:10.723Z,3.13
2018-11-22T08:57:10.722Z,3.15
2018-11-22T08:58:10.719Z,3.12
2018-11-22T08:59:10.675Z,3.23
2018-11-22T09:00:10.672Z,3.15
2018-11-22T09:01:10.668Z,3.16
2018-11-22T09:02:10.633Z,3.23
2018-11-22T09:03:10.691Z,3.20
2018-11-22T09:04:10.684Z,3.25
2018-11-22T09:05:10.607Z,3.23
2018-11-22T09:06:10.677Z,3.26
2018-11-22T09:07:10.580Z,3.25
2018-11-22T09:08:10.566Z,3.28
2018-11-22T09:09:10.594Z,3.28
2018-11-22T09:10:10.550Z,3.28
2018-11-22T09:11:10.535Z,3.26
2018-11-22T09:12:10.519Z,3.17
2018-11-22T09:13:10.553Z,3.23
2018-11-22T09:14:10.503Z,3.30
2018-11-22T09:15:10.500Z,3.19
2018-11-22T09:16:10.476Z,3.30
2018-11-22T09:17:10.475Z,3.26
2018-11-22T09:18:10.474Z,3.26
2018-11-22T09:19:10.447Z,3.25
2018-11-22T09:20:10.447Z,3.25
2018-11-22T09:21:10.430Z,3.23
2018-11-22T09:22:10.422Z,3.25
2018-11-22T09:23:10.447Z,3.31
2018-11-22T09:24:10.425Z,3.41
2018-11-22T09:25:10.382Z,3.34
2018-11-22T09:26:10.409Z,3.33
2018-11-22T09:27:10.360Z,3.42
2018-11-22T09:28:10.352Z,3.37
2018-11-22T09:29:10.337Z,3.39
2018-11-22T09:30:10.384Z,3.39
2018-11-22T09:31:10.320Z,3.41
2018-11-22T09:32:10.338Z,3.52
2018-11-22T09:33:10.299Z,3.46
2018-11-22T09:34:10.293Z,3.39
2018-11-22T09:35:10.349Z,3.46
2018-11-22T09:36:10.296Z,3.44
2018-11-22T09:37:10.255Z,3.42
2018-11-22T09:38:10.267Z,3.50
2018-11-22T09:39:10.235Z,3.45
2018-11-22T09:40:10.242Z,3.52
2018-11-22T09:41:10.206Z,3.46
2018-11-22T09:42:10.220Z,3.46
2018-11-22T09:43:10.186Z,3.50
2018-11-22T09:44:10.267Z,3.52
2018-11-22T09:45:10.163Z,3.50
2018-11-22T09:46:10.152Z,3.50
2018-11-22T09:47:10.148Z,3.57
2018-11-22T09:48:10.130Z,3.50
2018-11-22T09:49:10.160Z,3.53
2018-11-22T09:50:10.134Z,3.63
2018-11-22T09:51:10.129Z,3.57
2018-11-22T09:52:10.126Z,3.59
2018-11-22T09:53:10.086Z,3.60
2018-11-22T09:54:10.066Z,3.53
2018-11-22T09:55:10.129Z,3.59
2018-11-22T09:56:10.057Z,3.62
2018-11-22T09:57:10.038Z,3.62
2018-11-22T09:58:10.101Z,3.57
2018-11-22T09:59:10.053Z,3.56
2018-11-22T10:00:10.006Z,3.59
2018-11-22T10:01:10.073Z,3.60
2018-11-22T10:02:09.994Z,3.59
2018-11-22T10:03:10.119Z,3.63
2018-11-22T10:04:10.037Z,3.68
2018-11-22T10:05:10.163Z,3.57
2018-11-22T10:06:09.948Z,3.72
2018-11-22T10:07:09.980Z,3.59
2018-11-22T10:08:09.937Z,3.59
2018-11-22T10:09:09.962Z,3.72
2018-11-22T10:10:09.895Z,3.64
2018-11-22T10:11:09.878Z,3.68
2018-11-22T10:12:09.909Z,3.77
2018-11-22T10:13:10.060Z,3.74
2018-11-22T10:14:09.855Z,3.77
2018-11-22T10:15:09.874Z,3.71
2018-11-22T10:16:09.821Z,3.74
2018-11-22T10:17:10.003Z,3.77
2018-11-22T10:18:09.821Z,3.78
2018-11-22T10:19:09.840Z,3.72
2018-11-22T10:20:09.797Z,3.82
2018-11-22T10:21:09.770Z,3.75
2018-11-22T10:22:09.814Z,3.78
2018-11-22T10:23:09.744Z,3.84
2018-11-22T10:24:09.790Z,3.93
2018-11-22T10:25:09.787Z,3.84
2018-11-22T10:26:09.719Z,3.81
2018-11-22T10:27:09.703Z,3.82
2018-11-22T10:28:09.694Z,3.81
2018-11-22T10:29:09.745Z,3.90
2018-11-22T10:30:09.725Z,3.92
2018-11-22T10:31:09.706Z,3.77
2018-11-22T10:32:09.650Z,3.77
2018-11-22T10:33:09.639Z,3.88
2018-11-22T10:34:09.650Z,3.80
2018-11-22T10:35:09.693Z,3.89
2018-11-22T10:36:09.658Z,3.92
2018-11-22T10:37:09.598Z,3.93
2018-11-22T10:38:09.589Z,3.89
2018-11-22T10:39:09.629Z,3.78
2018-11-22T10:40:09.578Z,3.93
2018-11-22T10:41:09.571Z,3.95
2018-11-22T10:42:09.579Z,3.86
2018-11-22T10:43:09.612Z,3.84
2018-11-22T10:44:09.525Z,3.96
2018-11-22T10:45:09.542Z,3.90
2018-11-22T10:46:09.522Z,3.95
2018-11-22T10:47:09.492Z,3.95
2018-11-22T10:48:09.473Z,3.90
2018-11-22T10:49:09.522Z,3.90
2018-11-22T10:50:09.471Z,3.86
2018-11-22T10:51:09.469Z,3.95
2018-11-22T10:52:09.437Z,3.92
2018-11-22T10:53:09.443Z,3.95
2018-11-22T10:54:09.420Z,3.98
2018-11-22T10:55:09.429Z,3.88
2018-11-22T10:56:09.429Z,3.88
2018-11-22T10:57:09.374Z,3.90
2018-11-22T10:58:09.434Z,3.96
2018-11-22T10:59:09.354Z,3.90
2018-11-22T11:00:09.361Z,3.95
2018-11-22T11:01:09.330Z,4.02
2018-11-22T11:02:09.337Z,3.96
2018-11-22T11:03:09.306Z,3.98
2018-11-22T11:04:09.346Z,4.00
2018-11-22T11:05:09.300Z,4.04
2018-11-22T11:06:09.315Z,4.02
2018-11-22T11:07:09.276Z,3.98
2018-11-22T11:08:09.263Z,4.02
2018-11-22T11:09:09.247Z,4.07
2018-11-22T11:10:09.244Z,4.06
2018-11-22T11:11:09.223Z,4.04
2018-11-22T11:12:09.279Z,4.02
2018-11-22T11:13:09.234Z,4.08
2018-11-22T11:14:09.216Z,4.11
2018-11-22T11:15:09.175Z,4.08
2018-11-22T11:16:09.175Z,4.08
2018-11-22T11:17:09.227Z,4.07
2018-11-22T11:18:09.184Z,4.14
2018-11-22T11:19:09.153Z,4.16
2018-11-22T11:20:09.220Z,4.16
2018-11-22T11:21:09.153Z,4.14
2018-11-22T11:22:09.100Z,4.20
2018-11-22T11:23:09.117Z,4.17
2018-11-22T11:24:09.098Z,4.18
2018-11-22T11:25:09.073Z,4.16
2018-11-22T11:26:09.066Z,4.17
2018-11-22T11:27:09.054Z,4.26
2018-11-22T11:28:09.081Z,4.25
2018-11-22T11:29:12.772Z,4.28
2018-11-22T11:30:09.023Z,4.24
2018-11-22T11:31:09.012Z,4.26
2018-11-22T11:32:09.008Z,4.25
2018-11-22T11:33:08.991Z,4.29
2018-11-22T11:34:08.983Z,4.31
2018-11-22T11:35:08.981Z,4.20
2018-11-22T11:36:08.950Z,4.26
2018-11-22T11:37:08.948Z,4.36
2018-11-22T11:38:08.934Z,4.25
2018-11-22T11:39:08.922Z,4.28
2018-11-22T11:40:08.949Z,4.25
2018-11-22T11:41:08.891Z,4.36
2018-11-22T11:42:08.881Z,4.29
2018-11-22T11:43:08.867Z,4.46
2018-11-22T11:44:08.858Z,4.39
2018-11-22T11:45:08.855Z,4.39
2018-11-22T11:46:08.875Z,4.38
2018-11-22T11:47:08.825Z,4.35
2018-11-22T11:48:08.815Z,4.36
2018-11-22T11:49:08.802Z,4.43
2018-11-22T11:50:08.801Z,4.36
2018-11-22T11:51:08.814Z,4.49
2018-11-22T11:52:08.775Z,4.47
2018-11-22T11:53:08.769Z,4.47
2018-11-22T11:54:08.756Z,4.46
2018-11-22T11:55:08.742Z,4.49
2018-11-22T11:56:08.728Z,4.53
2018-11-22T11:57:08.731Z,4.50
2018-11-22T11:58:10.025Z,4.47
2018-11-22T11:59:08.743Z,4.57
2018-11-22T12:00:08.694Z,4.56
2018-11-22T12:01:08.681Z,4.53
2018-11-22T12:02:08.693Z,4.47
2018-11-22T12:03:08.718Z,4.53
2018-11-22T12:04:08.676Z,4.51
2018-11-22T12:05:08.640Z,4.57
2018-11-22T12:06:08.647Z,4.59
2018-11-22T12:07:08.627Z,4.54
2018-11-22T12:08:08.631Z,4.59
2018-11-22T12:09:11.194Z,4.68
2018-11-22T12:10:08.603Z,4.74
2018-11-22T12:11:08.581Z,4.74
2018-11-22T12:12:15.269Z,4.65
2018-11-22T12:13:08.561Z,4.69
2018-11-22T12:14:08.538Z,4.65
2018-11-22T12:15:08.563Z,4.68
2018-11-22T12:16:08.512Z,4.71
2018-11-22T12:17:08.504Z,4.67
2018-11-22T12:18:08.489Z,4.79
2018-11-22T12:19:08.482Z,4.79
2018-11-22T12:20:08.537Z,4.77
2018-11-22T12:21:08.460Z,4.87
2018-11-22T12:22:08.448Z,4.86
2018-11-22T12:23:08.436Z,4.80
2018-11-22T12:24:08.431Z,4.79
2018-11-22T12:25:08.418Z,4.80
2018-11-22T12:26:08.462Z,4.80
2018-11-22T12:27:08.396Z,4.87
2018-11-22T12:28:08.385Z,4.79
2018-11-22T12:29:08.378Z,4.84
2018-11-22T12:30:08.376Z,4.88
2018-11-22T12:31:08.371Z,4.87
2018-11-22T12:32:08.363Z,4.87
2018-11-22T12:33:08.334Z,4.87
2018-11-22T12:34:08.321Z,4.88
2018-11-22T12:35:08.312Z,4.86
2018-11-22T12:36:08.313Z,4.86
2018-11-22T12:37:08.292Z,4.93
2018-11-22T12:38:08.292Z,4.90
2018-11-22T12:39:08.271Z,4.87
2018-11-22T12:40:08.255Z,4.90
2018-11-22T12:41:08.264Z,4.91
2018-11-22T12:42:08.235Z,4.87
2018-11-22T12:43:08.230Z,4.93
2018-11-22T12:44:08.249Z,4.90
2018-11-22T12:45:08.204Z,4.91
2018-11-22T12:46:08.215Z,4.88
2018-11-22T12:47:08.180Z,4.88
2018-11-22T12:48:08.170Z,4.91
2018-11-22T12:49:08.207Z,4.86
2018-11-22T12:50:08.151Z,4.90
2018-11-22T12:51:09.007Z,4.90
2018-11-22T12:52:08.148Z,4.93
2018-11-22T12:53:08.888Z,4.86
2018-11-22T12:54:08.106Z,4.88
2018-11-22T12:55:08.097Z,4.84
2018-11-22T12:56:08.092Z,4.83
2018-11-22T12:57:08.099Z,4.84
2018-11-22T12:58:08.071Z,4.79
2018-11-22T12:59:08.062Z,4.80
2018-11-22T13:00:08.040Z,4.79
2018-11-22T13:01:08.039Z,4.86
2018-11-22T13:02:08.044Z,4.79
2018-11-22T13:03:08.013Z,4.87
2018-11-22T13:04:08.011Z,4.83
2018-11-22T13:05:08.001Z,4.80
2018-11-22T13:06:07.979Z,4.84
2018-11-22T13:07:07.970Z,4.86
2018-11-22T13:08:07.960Z,4.86
2018-11-22T13:09:07.957Z,4.83
2018-11-22T13:10:07.947Z,4.90
2018-11-22T13:11:07.929Z,4.86
2018-11-22T13:12:07.914Z,4.87
2018-11-22T13:13:07.942Z,4.84
2018-11-22T13:14:07.896Z,4.88
2018-11-22T13:15:07.882Z,4.86
2018-11-22T13:16:07.876Z,4.84
2018-11-22T13:17:07.900Z,4.86
2018-11-22T13:18:07.846Z,4.88